sensor_id;sensor_type;location;lat;lon;timestamp;temperature;humidity
10304;DHT22;5197;48.152;8.590;2022-11-15T00:00:56;6.30;38.80
10304;DHT22;5197;48.152;8.590;2022-11-15T00:03:26;6.30;38.80
10304;DHT22;5197;48.152;8.590;2022-11-15T00:05:53;6.30;38.70
10304;DHT22;5197;48.152;8.590;2022-11-15T00:08:20;6.30;38.70
10304;DHT22;5197;48.152;8.590;2022-11-15T00:10:58;6.30;38.90
10304;DHT22;5197;48.152;8.590;2022-11-15T00:13:26;6.30;39.00
10304;DHT22;5197;48.152;8.590;2022-11-15T00:15:57;6.30;39.60
10304;DHT22;5197;48.152;8.590;2022-11-15T00:18:25;6.40;40.00
10304;DHT22;5197;48.152;8.590;2022-11-15T00:20:52;6.30;40.20
10304;DHT22;5197;48.152;8.590;2022-11-15T00:23:19;6.40;40.70
10304;DHT22;5197;48.152;8.590;2022-11-15T00:25:46;6.40;40.40
10304;DHT22;5197;48.152;8.590;2022-11-15T00:28:13;6.40;40.60
10304;DHT22;5197;48.152;8.590;2022-11-15T00:30:40;6.40;40.60
10304;DHT22;5197;48.152;8.590;2022-11-15T00:33:08;6.50;40.90
10304;DHT22;5197;48.152;8.590;2022-11-15T00:35:36;6.50;41.00
10304;DHT22;5197;48.152;8.590;2022-11-15T00:38:03;6.50;41.20
10304;DHT22;5197;48.152;8.590;2022-11-15T00:40:30;6.60;41.50
10304;DHT22;5197;48.152;8.590;2022-11-15T00:42:57;6.60;41.60
10304;DHT22;5197;48.152;8.590;2022-11-15T00:45:24;6.60;41.60
10304;DHT22;5197;48.152;8.590;2022-11-15T00:47:51;6.60;41.70
10304;DHT22;5197;48.152;8.590;2022-11-15T00:50:19;6.60;41.40
10304;DHT22;5197;48.152;8.590;2022-11-15T00:52:46;6.60;41.30
10304;DHT22;5197;48.152;8.590;2022-11-15T00:55:14;6.60;41.70
10304;DHT22;5197;48.152;8.590;2022-11-15T00:57:41;6.60;41.80
10304;DHT22;5197;48.152;8.590;2022-11-15T01:00:09;6.60;41.90
10304;DHT22;5197;48.152;8.590;2022-11-15T01:02:36;6.60;41.80
10304;DHT22;5197;48.152;8.590;2022-11-15T01:05:03;6.60;41.80
10304;DHT22;5197;48.152;8.590;2022-11-15T01:07:30;6.60;41.60
10304;DHT22;5197;48.152;8.590;2022-11-15T01:09:57;6.60;41.30
10304;DHT22;5197;48.152;8.590;2022-11-15T01:12:24;6.60;41.10
10304;DHT22;5197;48.152;8.590;2022-11-15T01:14:51;6.60;41.50
10304;DHT22;5197;48.152;8.590;2022-11-15T01:17:18;6.60;41.70
10304;DHT22;5197;48.152;8.590;2022-11-15T01:19:45;6.60;41.80
10304;DHT22;5197;48.152;8.590;2022-11-15T01:22:12;6.60;41.60
10304;DHT22;5197;48.152;8.590;2022-11-15T01:24:39;6.60;41.50
10304;DHT22;5197;48.152;8.590;2022-11-15T01:27:06;6.60;41.20
10304;DHT22;5197;48.152;8.590;2022-11-15T01:29:34;6.50;41.50
10304;DHT22;5197;48.152;8.590;2022-11-15T01:32:01;6.60;41.80
10304;DHT22;5197;48.152;8.590;2022-11-15T01:34:27;6.60;42.00
10304;DHT22;5197;48.152;8.590;2022-11-15T01:36:54;6.60;42.00
10304;DHT22;5197;48.152;8.590;2022-11-15T01:39:21;6.60;42.10
10304;DHT22;5197;48.152;8.590;2022-11-15T01:41:48;6.60;42.00
10304;DHT22;5197;48.152;8.590;2022-11-15T01:46:59;6.60;41.20
10304;DHT22;5197;48.152;8.590;2022-11-15T01:49:29;6.50;41.90
10304;DHT22;5197;48.152;8.590;2022-11-15T01:51:57;6.50;42.30
10304;DHT22;5197;48.152;8.590;2022-11-15T01:54:25;6.50;42.20
10304;DHT22;5197;48.152;8.590;2022-11-15T01:56:57;6.50;42.10
10304;DHT22;5197;48.152;8.590;2022-11-15T01:59:26;6.50;42.00
10304;DHT22;5197;48.152;8.590;2022-11-15T02:01:53;6.50;42.20
10304;DHT22;5197;48.152;8.590;2022-11-15T02:04:28;6.50;42.70
10304;DHT22;5197;48.152;8.590;2022-11-15T02:06:56;6.50;42.50
10304;DHT22;5197;48.152;8.590;2022-11-15T02:09:23;6.50;43.10
10304;DHT22;5197;48.152;8.590;2022-11-15T02:11:50;6.50;43.30
10304;DHT22;5197;48.152;8.590;2022-11-15T02:14:20;6.50;43.20
10304;DHT22;5197;48.152;8.590;2022-11-15T02:16:54;6.60;43.40
10304;DHT22;5197;48.152;8.590;2022-11-15T02:28:10;6.60;44.00
10304;DHT22;5197;48.152;8.590;2022-11-15T02:30:45;6.70;44.00
10304;DHT22;5197;48.152;8.590;2022-11-15T02:36:00;6.70;44.40
10304;DHT22;5197;48.152;8.590;2022-11-15T02:38:40;6.70;44.70
10304;DHT22;5197;48.152;8.590;2022-11-15T02:41:19;6.70;44.70
10304;DHT22;5197;48.152;8.590;2022-11-15T02:43:51;6.80;44.70
10304;DHT22;5197;48.152;8.590;2022-11-15T02:47:01;6.80;44.80
10304;DHT22;5197;48.152;8.590;2022-11-15T02:49:48;6.90;44.80
10304;DHT22;5197;48.152;8.590;2022-11-15T02:52:17;6.90;44.80
10304;DHT22;5197;48.152;8.590;2022-11-15T02:54:59;7.00;44.90
10304;DHT22;5197;48.152;8.590;2022-11-15T02:57:48;7.00;44.90
10304;DHT22;5197;48.152;8.590;2022-11-15T03:00:21;7.10;44.80
10304;DHT22;5197;48.152;8.590;2022-11-15T03:08:38;7.10;45.00
10304;DHT22;5197;48.152;8.590;2022-11-15T03:11:17;7.10;45.00
10304;DHT22;5197;48.152;8.590;2022-11-15T03:16:51;7.20;44.20
10304;DHT22;5197;48.152;8.590;2022-11-15T03:22:19;7.30;44.60
10304;DHT22;5197;48.152;8.590;2022-11-15T03:24:51;7.30;44.20
10304;DHT22;5197;48.152;8.590;2022-11-15T03:27:22;7.30;43.80
10304;DHT22;5197;48.152;8.590;2022-11-15T03:29:58;7.30;43.30
10304;DHT22;5197;48.152;8.590;2022-11-15T03:32:29;7.30;43.20
10304;DHT22;5197;48.152;8.590;2022-11-15T03:40:06;7.30;43.10
10304;DHT22;5197;48.152;8.590;2022-11-15T03:45:55;7.40;43.20
10304;DHT22;5197;48.152;8.590;2022-11-15T03:48:29;7.40;42.60
10304;DHT22;5197;48.152;8.590;2022-11-15T03:50:57;7.40;42.30
10304;DHT22;5197;48.152;8.590;2022-11-15T03:53:24;7.40;42.10
10304;DHT22;5197;48.152;8.590;2022-11-15T03:55:51;7.40;42.10
10304;DHT22;5197;48.152;8.590;2022-11-15T03:58:18;7.40;42.00
10304;DHT22;5197;48.152;8.590;2022-11-15T04:00:45;7.40;42.10
10304;DHT22;5197;48.152;8.590;2022-11-15T04:03:12;7.40;41.90
10304;DHT22;5197;48.152;8.590;2022-11-15T04:05:39;7.40;41.90
10304;DHT22;5197;48.152;8.590;2022-11-15T04:08:06;7.50;41.80
10304;DHT22;5197;48.152;8.590;2022-11-15T04:10:33;7.50;41.70
10304;DHT22;5197;48.152;8.590;2022-11-15T04:13:02;7.50;41.60
10304;DHT22;5197;48.152;8.590;2022-11-15T04:15:29;7.50;41.60
10304;DHT22;5197;48.152;8.590;2022-11-15T04:17:57;7.50;41.60
10304;DHT22;5197;48.152;8.590;2022-11-15T04:20:27;7.50;41.40
10304;DHT22;5197;48.152;8.590;2022-11-15T04:23:16;7.50;41.20
10304;DHT22;5197;48.152;8.590;2022-11-15T04:26:04;7.50;41.20
10304;DHT22;5197;48.152;8.590;2022-11-15T04:28:31;7.50;41.30
10304;DHT22;5197;48.152;8.590;2022-11-15T04:30:58;7.50;41.30
10304;DHT22;5197;48.152;8.590;2022-11-15T04:33:25;7.50;41.10
10304;DHT22;5197;48.152;8.590;2022-11-15T04:35:52;7.50;41.00
10304;DHT22;5197;48.152;8.590;2022-11-15T04:38:38;7.50;42.20
10304;DHT22;5197;48.152;8.590;2022-11-15T04:41:04;7.50;40.90
10304;DHT22;5197;48.152;8.590;2022-11-15T04:43:31;7.50;41.00
10304;DHT22;5197;48.152;8.590;2022-11-15T04:45:59;7.50;40.70
10304;DHT22;5197;48.152;8.590;2022-11-15T04:48:26;7.50;40.60
10304;DHT22;5197;48.152;8.590;2022-11-15T04:50:53;7.60;40.60
10304;DHT22;5197;48.152;8.590;2022-11-15T04:53:20;7.60;40.40
10304;DHT22;5197;48.152;8.590;2022-11-15T04:55:47;7.60;40.20
10304;DHT22;5197;48.152;8.590;2022-11-15T04:58:14;7.60;40.00
10304;DHT22;5197;48.152;8.590;2022-11-15T05:00:41;7.60;40.00
10304;DHT22;5197;48.152;8.590;2022-11-15T05:03:09;7.60;39.90
10304;DHT22;5197;48.152;8.590;2022-11-15T05:05:55;7.60;39.70
10304;DHT22;5197;48.152;8.590;2022-11-15T05:08:22;7.60;39.70
10304;DHT22;5197;48.152;8.590;2022-11-15T05:10:49;7.70;39.70
10304;DHT22;5197;48.152;8.590;2022-11-15T05:13:16;7.70;39.60
10304;DHT22;5197;48.152;8.590;2022-11-15T05:15:43;7.70;39.60
10304;DHT22;5197;48.152;8.590;2022-11-15T05:18:11;7.60;39.60
10304;DHT22;5197;48.152;8.590;2022-11-15T05:20:38;7.70;39.60
10304;DHT22;5197;48.152;8.590;2022-11-15T05:23:05;7.70;39.70
10304;DHT22;5197;48.152;8.590;2022-11-15T05:25:32;7.70;39.70
10304;DHT22;5197;48.152;8.590;2022-11-15T05:27:59;7.70;39.90
10304;DHT22;5197;48.152;8.590;2022-11-15T05:30:26;7.70;40.00
10304;DHT22;5197;48.152;8.590;2022-11-15T05:32:53;7.80;40.20
10304;DHT22;5197;48.152;8.590;2022-11-15T05:35:38;7.80;40.20
10304;DHT22;5197;48.152;8.590;2022-11-15T05:38:07;7.80;39.90
10304;DHT22;5197;48.152;8.590;2022-11-15T05:40:34;7.90;40.00
10304;DHT22;5197;48.152;8.590;2022-11-15T05:43:03;7.90;40.00
10304;DHT22;5197;48.152;8.590;2022-11-15T05:45:32;7.90;40.10
10304;DHT22;5197;48.152;8.590;2022-11-15T05:48:05;7.90;39.70
10304;DHT22;5197;48.152;8.590;2022-11-15T05:50:34;7.90;39.50
10304;DHT22;5197;48.152;8.590;2022-11-15T05:53:03;7.90;39.50
10304;DHT22;5197;48.152;8.590;2022-11-15T05:55:31;7.90;39.60
10304;DHT22;5197;48.152;8.590;2022-11-15T05:57:59;7.90;39.60
10304;DHT22;5197;48.152;8.590;2022-11-15T06:00:27;7.90;39.60
10304;DHT22;5197;48.152;8.590;2022-11-15T06:02:54;8.00;39.60
10304;DHT22;5197;48.152;8.590;2022-11-15T06:05:21;8.00;39.60
10304;DHT22;5197;48.152;8.590;2022-11-15T06:07:48;7.90;39.40
10304;DHT22;5197;48.152;8.590;2022-11-15T06:10:16;8.00;39.30
10304;DHT22;5197;48.152;8.590;2022-11-15T06:12:43;8.00;39.20
10304;DHT22;5197;48.152;8.590;2022-11-15T06:15:10;8.00;39.00
10304;DHT22;5197;48.152;8.590;2022-11-15T06:17:37;8.00;38.90
10304;DHT22;5197;48.152;8.590;2022-11-15T06:20:04;8.00;38.90
10304;DHT22;5197;48.152;8.590;2022-11-15T06:22:31;8.00;38.50
10304;DHT22;5197;48.152;8.590;2022-11-15T06:24:58;8.00;38.20
10304;DHT22;5197;48.152;8.590;2022-11-15T06:27:32;8.00;38.40
10304;DHT22;5197;48.152;8.590;2022-11-15T06:29:59;8.00;38.30
10304;DHT22;5197;48.152;8.590;2022-11-15T06:32:26;8.00;38.00
10304;DHT22;5197;48.152;8.590;2022-11-15T06:34:53;8.00;38.00
10304;DHT22;5197;48.152;8.590;2022-11-15T06:37:20;7.90;38.00
10304;DHT22;5197;48.152;8.590;2022-11-15T06:39:47;7.90;38.10
10304;DHT22;5197;48.152;8.590;2022-11-15T06:42:14;7.90;38.40
10304;DHT22;5197;48.152;8.590;2022-11-15T06:44:41;7.90;38.60
10304;DHT22;5197;48.152;8.590;2022-11-15T06:47:07;7.90;38.80
10304;DHT22;5197;48.152;8.590;2022-11-15T06:49:34;7.90;38.80
10304;DHT22;5197;48.152;8.590;2022-11-15T06:52:01;7.90;38.90
10304;DHT22;5197;48.152;8.590;2022-11-15T06:54:29;7.90;38.80
10304;DHT22;5197;48.152;8.590;2022-11-15T06:56:56;7.90;38.90
10304;DHT22;5197;48.152;8.590;2022-11-15T06:59:27;7.90;38.90
10304;DHT22;5197;48.152;8.590;2022-11-15T07:01:53;8.00;39.00
10304;DHT22;5197;48.152;8.590;2022-11-15T07:04:20;8.00;39.30
10304;DHT22;5197;48.152;8.590;2022-11-15T07:06:48;8.00;39.00
10304;DHT22;5197;48.152;8.590;2022-11-15T07:09:15;8.00;39.10
10304;DHT22;5197;48.152;8.590;2022-11-15T07:11:42;8.00;39.20
10304;DHT22;5197;48.152;8.590;2022-11-15T07:14:09;8.10;39.20
10304;DHT22;5197;48.152;8.590;2022-11-15T07:16:36;8.10;39.20
10304;DHT22;5197;48.152;8.590;2022-11-15T07:19:04;8.10;39.10
10304;DHT22;5197;48.152;8.590;2022-11-15T07:21:32;8.10;39.00
10304;DHT22;5197;48.152;8.590;2022-11-15T07:23:59;8.20;39.10
10304;DHT22;5197;48.152;8.590;2022-11-15T07:26:26;8.20;38.90
10304;DHT22;5197;48.152;8.590;2022-11-15T07:28:53;8.20;38.60
10304;DHT22;5197;48.152;8.590;2022-11-15T07:31:21;8.20;38.40
10304;DHT22;5197;48.152;8.590;2022-11-15T07:33:48;8.20;38.40
10304;DHT22;5197;48.152;8.590;2022-11-15T07:36:15;8.20;38.20
10304;DHT22;5197;48.152;8.590;2022-11-15T07:38:42;8.20;38.00
10304;DHT22;5197;48.152;8.590;2022-11-15T07:41:10;8.20;37.80
10304;DHT22;5197;48.152;8.590;2022-11-15T07:43:37;8.30;37.90
10304;DHT22;5197;48.152;8.590;2022-11-15T07:46:08;8.30;37.90
10304;DHT22;5197;48.152;8.590;2022-11-15T07:48:38;8.30;37.70
10304;DHT22;5197;48.152;8.590;2022-11-15T07:51:15;8.30;37.70
10304;DHT22;5197;48.152;8.590;2022-11-15T07:53:43;8.40;37.80
10304;DHT22;5197;48.152;8.590;2022-11-15T07:56:10;8.40;38.00
10304;DHT22;5197;48.152;8.590;2022-11-15T07:58:38;8.40;37.90
10304;DHT22;5197;48.152;8.590;2022-11-15T08:01:06;8.50;38.00
10304;DHT22;5197;48.152;8.590;2022-11-15T08:03:34;8.50;38.10
10304;DHT22;5197;48.152;8.590;2022-11-15T08:06:02;8.60;37.90
10304;DHT22;5197;48.152;8.590;2022-11-15T08:08:29;8.70;37.80
10304;DHT22;5197;48.152;8.590;2022-11-15T08:11:00;8.70;37.30
10304;DHT22;5197;48.152;8.590;2022-11-15T08:13:27;8.80;37.20
10304;DHT22;5197;48.152;8.590;2022-11-15T08:16:02;8.80;38.00
10304;DHT22;5197;48.152;8.590;2022-11-15T08:18:29;8.80;36.30
10304;DHT22;5197;48.152;8.590;2022-11-15T08:21:00;8.90;35.90
10304;DHT22;5197;48.152;8.590;2022-11-15T08:23:27;8.90;35.50
10304;DHT22;5197;48.152;8.590;2022-11-15T08:26:04;9.00;35.30
10304;DHT22;5197;48.152;8.590;2022-11-15T08:28:32;9.00;35.00
10304;DHT22;5197;48.152;8.590;2022-11-15T08:31:00;9.00;34.80
10304;DHT22;5197;48.152;8.590;2022-11-15T08:33:28;9.10;34.70
10304;DHT22;5197;48.152;8.590;2022-11-15T08:36:00;9.10;34.40
10304;DHT22;5197;48.152;8.590;2022-11-15T08:38:27;9.20;34.20
10304;DHT22;5197;48.152;8.590;2022-11-15T08:41:04;9.20;35.40
10304;DHT22;5197;48.152;8.590;2022-11-15T08:43:31;9.20;33.80
10304;DHT22;5197;48.152;8.590;2022-11-15T08:45:59;9.30;33.60
10304;DHT22;5197;48.152;8.590;2022-11-15T08:48:26;9.30;33.30
10304;DHT22;5197;48.152;8.590;2022-11-15T08:50:56;9.40;33.20
10304;DHT22;5197;48.152;8.590;2022-11-15T08:53:23;9.40;32.80
10304;DHT22;5197;48.152;8.590;2022-11-15T08:55:50;9.50;32.90
10304;DHT22;5197;48.152;8.590;2022-11-15T08:58:17;9.50;32.90
10304;DHT22;5197;48.152;8.590;2022-11-15T09:00:44;9.60;32.90
10304;DHT22;5197;48.152;8.590;2022-11-15T09:03:11;9.70;32.60
10304;DHT22;5197;48.152;8.590;2022-11-15T09:05:38;9.70;32.10
10304;DHT22;5197;48.152;8.590;2022-11-15T09:08:05;9.70;31.90
10304;DHT22;5197;48.152;8.590;2022-11-15T09:10:52;9.80;31.50
10304;DHT22;5197;48.152;8.590;2022-11-15T09:13:20;9.90;31.50
10304;DHT22;5197;48.152;8.590;2022-11-15T09:15:47;10.00;30.20
10304;DHT22;5197;48.152;8.590;2022-11-15T09:18:14;10.00;29.90
10304;DHT22;5197;48.152;8.590;2022-11-15T09:20:41;10.00;29.70
10304;DHT22;5197;48.152;8.590;2022-11-15T09:23:07;10.10;29.50
10304;DHT22;5197;48.152;8.590;2022-11-15T09:25:34;10.10;30.20
10304;DHT22;5197;48.152;8.590;2022-11-15T09:28:06;10.10;29.20
10304;DHT22;5197;48.152;8.590;2022-11-15T09:30:33;10.20;28.80
10304;DHT22;5197;48.152;8.590;2022-11-15T09:33:09;10.20;28.70
10304;DHT22;5197;48.152;8.590;2022-11-15T09:35:36;10.20;28.10
10304;DHT22;5197;48.152;8.590;2022-11-15T09:38:03;10.20;28.30
10304;DHT22;5197;48.152;8.590;2022-11-15T09:40:31;10.20;28.30
10304;DHT22;5197;48.152;8.590;2022-11-15T09:50:53;10.30;28.20
10304;DHT22;5197;48.152;8.590;2022-11-15T09:53:43;10.30;28.10
10304;DHT22;5197;48.152;8.590;2022-11-15T09:56:40;10.40;27.70
10304;DHT22;5197;48.152;8.590;2022-11-15T10:04:38;10.40;27.30
10304;DHT22;5197;48.152;8.590;2022-11-15T10:12:35;10.50;27.20
10304;DHT22;5197;48.152;8.590;2022-11-15T10:15:05;10.50;27.30
10304;DHT22;5197;48.152;8.590;2022-11-15T10:20:30;10.60;27.00
10304;DHT22;5197;48.152;8.590;2022-11-15T10:23:06;10.60;26.90
10304;DHT22;5197;48.152;8.590;2022-11-15T10:25:34;10.60;27.00
10304;DHT22;5197;48.152;8.590;2022-11-15T10:28:25;10.60;26.90
10304;DHT22;5197;48.152;8.590;2022-11-15T10:30:58;10.80;26.60
10304;DHT22;5197;48.152;8.590;2022-11-15T10:41:34;10.90;26.60
10304;DHT22;5197;48.152;8.590;2022-11-15T10:49:26;11.10;26.70
10304;DHT22;5197;48.152;8.590;2022-11-15T10:57:07;11.20;25.50
10304;DHT22;5197;48.152;8.590;2022-11-15T10:59:36;11.30;25.40
10304;DHT22;5197;48.152;8.590;2022-11-15T11:05:05;11.40;25.30
10304;DHT22;5197;48.152;8.590;2022-11-15T11:07:34;11.40;25.20
10304;DHT22;5197;48.152;8.590;2022-11-15T11:10:21;11.50;24.80
10304;DHT22;5197;48.152;8.590;2022-11-15T11:13:15;11.50;24.00
10304;DHT22;5197;48.152;8.590;2022-11-15T11:15:46;11.50;23.70
10304;DHT22;5197;48.152;8.590;2022-11-15T11:24:33;11.50;24.40
10304;DHT22;5197;48.152;8.590;2022-11-15T11:30:03;11.60;24.50
10304;DHT22;5197;48.152;8.590;2022-11-15T11:47:01;11.80;22.00
10304;DHT22;5197;48.152;8.590;2022-11-15T11:57:40;11.80;22.00
10304;DHT22;5197;48.152;8.590;2022-11-15T12:00:23;11.80;22.00
10304;DHT22;5197;48.152;8.590;2022-11-15T12:03:23;11.80;22.00
10304;DHT22;5197;48.152;8.590;2022-11-15T12:05:56;11.90;22.10
10304;DHT22;5197;48.152;8.590;2022-11-15T12:11:20;11.90;22.00
10304;DHT22;5197;48.152;8.590;2022-11-15T12:13:53;11.90;22.00
10304;DHT22;5197;48.152;8.590;2022-11-15T12:16:26;11.90;22.10
10304;DHT22;5197;48.152;8.590;2022-11-15T12:18:58;11.90;22.10
10304;DHT22;5197;48.152;8.590;2022-11-15T12:21:47;11.90;22.10
10304;DHT22;5197;48.152;8.590;2022-11-15T12:27:06;11.90;22.00
10304;DHT22;5197;48.152;8.590;2022-11-15T12:29:55;11.90;22.00
10304;DHT22;5197;48.152;8.590;2022-11-15T12:34:51;12.00;22.10
10304;DHT22;5197;48.152;8.590;2022-11-15T12:58:44;12.10;22.20
10304;DHT22;5197;48.152;8.590;2022-11-15T13:06:51;12.10;21.40
10304;DHT22;5197;48.152;8.590;2022-11-15T13:15:07;12.10;21.10
10304;DHT22;5197;48.152;8.590;2022-11-15T13:17:50;12.10;21.20
10304;DHT22;5197;48.152;8.590;2022-11-15T13:35:50;12.20;19.40
10304;DHT22;5197;48.152;8.590;2022-11-15T13:40:53;12.10;19.90
10304;DHT22;5197;48.152;8.590;2022-11-15T13:46:09;12.20;20.30
10304;DHT22;5197;48.152;8.590;2022-11-15T13:48:37;12.10;19.80
10304;DHT22;5197;48.152;8.590;2022-11-15T13:51:13;12.10;19.90
10304;DHT22;5197;48.152;8.590;2022-11-15T13:53:55;12.20;19.80
10304;DHT22;5197;48.152;8.590;2022-11-15T13:56:23;12.10;19.70
10304;DHT22;5197;48.152;8.590;2022-11-15T13:58:52;12.10;20.00
10304;DHT22;5197;48.152;8.590;2022-11-15T14:01:22;12.10;20.00
10304;DHT22;5197;48.152;8.590;2022-11-15T14:03:56;12.10;20.10
10304;DHT22;5197;48.152;8.590;2022-11-15T14:06:26;12.10;20.20
10304;DHT22;5197;48.152;8.590;2022-11-15T14:11:32;12.10;20.00
10304;DHT22;5197;48.152;8.590;2022-11-15T14:16:48;12.10;20.00
10304;DHT22;5197;48.152;8.590;2022-11-15T14:22:11;12.00;19.50
10304;DHT22;5197;48.152;8.590;2022-11-15T14:24:39;12.00;19.20
10304;DHT22;5197;48.152;8.590;2022-11-15T14:27:27;11.90;19.40
10304;DHT22;5197;48.152;8.590;2022-11-15T14:29:55;11.90;19.10
10304;DHT22;5197;48.152;8.590;2022-11-15T14:32:30;11.90;19.30
10304;DHT22;5197;48.152;8.590;2022-11-15T14:35:09;11.90;19.10
10304;DHT22;5197;48.152;8.590;2022-11-15T14:37:38;11.90;19.00
10304;DHT22;5197;48.152;8.590;2022-11-15T14:40:06;11.80;18.90
10304;DHT22;5197;48.152;8.590;2022-11-15T14:42:37;11.80;18.80
10304;DHT22;5197;48.152;8.590;2022-11-15T14:45:18;11.80;18.70
10304;DHT22;5197;48.152;8.590;2022-11-15T14:47:45;11.80;18.80
10304;DHT22;5197;48.152;8.590;2022-11-15T14:50:21;11.80;18.90
10304;DHT22;5197;48.152;8.590;2022-11-15T14:52:48;11.70;18.70
10304;DHT22;5197;48.152;8.590;2022-11-15T14:55:19;11.70;19.00
10304;DHT22;5197;48.152;8.590;2022-11-15T14:57:47;11.60;19.00
10304;DHT22;5197;48.152;8.590;2022-11-15T15:00:14;11.60;19.10
10304;DHT22;5197;48.152;8.590;2022-11-15T15:02:42;11.60;19.30
10304;DHT22;5197;48.152;8.590;2022-11-15T15:07:40;11.60;19.20
10304;DHT22;5197;48.152;8.590;2022-11-15T15:10:08;11.50;19.30
10304;DHT22;5197;48.152;8.590;2022-11-15T15:12:55;11.50;19.70
10304;DHT22;5197;48.152;8.590;2022-11-15T15:15:25;11.50;20.00
10304;DHT22;5197;48.152;8.590;2022-11-15T15:17:52;11.50;19.90
10304;DHT22;5197;48.152;8.590;2022-11-15T15:20:19;11.40;19.90
10304;DHT22;5197;48.152;8.590;2022-11-15T15:22:46;11.40;20.10
10304;DHT22;5197;48.152;8.590;2022-11-15T15:25:33;11.40;20.40
10304;DHT22;5197;48.152;8.590;2022-11-15T15:28:01;11.40;20.00
10304;DHT22;5197;48.152;8.590;2022-11-15T15:30:30;11.30;20.60
10304;DHT22;5197;48.152;8.590;2022-11-15T15:32:57;11.30;20.50
10304;DHT22;5197;48.152;8.590;2022-11-15T15:35:29;11.30;20.50
10304;DHT22;5197;48.152;8.590;2022-11-15T15:37:56;11.30;20.80
10304;DHT22;5197;48.152;8.590;2022-11-15T15:40:25;11.30;20.90
10304;DHT22;5197;48.152;8.590;2022-11-15T15:42:52;11.30;20.90
10304;DHT22;5197;48.152;8.590;2022-11-15T15:45:19;11.20;20.60
10304;DHT22;5197;48.152;8.590;2022-11-15T15:47:47;11.20;20.70
10304;DHT22;5197;48.152;8.590;2022-11-15T15:50:31;11.10;20.40
10304;DHT22;5197;48.152;8.590;2022-11-15T15:53:00;11.10;20.10
10304;DHT22;5197;48.152;8.590;2022-11-15T15:55:28;11.00;20.90
10304;DHT22;5197;48.152;8.590;2022-11-15T15:57:55;11.00;22.40
10304;DHT22;5197;48.152;8.590;2022-11-15T16:00:24;11.00;21.40
10304;DHT22;5197;48.152;8.590;2022-11-15T16:02:52;11.00;21.40
10304;DHT22;5197;48.152;8.590;2022-11-15T16:05:20;11.00;21.20
10304;DHT22;5197;48.152;8.590;2022-11-15T16:07:48;11.00;20.90
10304;DHT22;5197;48.152;8.590;2022-11-15T16:10:24;10.90;20.50
10304;DHT22;5197;48.152;8.590;2022-11-15T16:12:54;10.90;21.00
10304;DHT22;5197;48.152;8.590;2022-11-15T16:15:22;10.90;21.10
10304;DHT22;5197;48.152;8.590;2022-11-15T16:17:55;10.90;20.50
10304;DHT22;5197;48.152;8.590;2022-11-15T16:22:55;10.90;19.80
10304;DHT22;5197;48.152;8.590;2022-11-15T16:25:22;10.90;19.80
10304;DHT22;5197;48.152;8.590;2022-11-15T16:27:49;10.80;19.40
10304;DHT22;5197;48.152;8.590;2022-11-15T16:30:19;10.70;19.30
10304;DHT22;5197;48.152;8.590;2022-11-15T16:32:46;10.70;19.10
10304;DHT22;5197;48.152;8.590;2022-11-15T16:35:15;10.70;18.80
10304;DHT22;5197;48.152;8.590;2022-11-15T16:37:42;10.70;18.30
10304;DHT22;5197;48.152;8.590;2022-11-15T16:40:33;10.70;18.20
10304;DHT22;5197;48.152;8.590;2022-11-15T16:43:00;10.60;17.80
10304;DHT22;5197;48.152;8.590;2022-11-15T16:45:29;10.60;18.20
10304;DHT22;5197;48.152;8.590;2022-11-15T16:47:57;10.60;18.00
10304;DHT22;5197;48.152;8.590;2022-11-15T16:50:28;10.60;18.00
10304;DHT22;5197;48.152;8.590;2022-11-15T16:52:57;10.60;17.80
10304;DHT22;5197;48.152;8.590;2022-11-15T16:55:26;10.60;17.70
10304;DHT22;5197;48.152;8.590;2022-11-15T16:57:55;10.60;17.60
10304;DHT22;5197;48.152;8.590;2022-11-15T17:00:24;10.50;17.40
10304;DHT22;5197;48.152;8.590;2022-11-15T17:02:52;10.50;17.40
10304;DHT22;5197;48.152;8.590;2022-11-15T17:05:20;10.50;17.30
10304;DHT22;5197;48.152;8.590;2022-11-15T17:07:49;10.50;17.20
10304;DHT22;5197;48.152;8.590;2022-11-15T17:10:17;10.50;17.20
10304;DHT22;5197;48.152;8.590;2022-11-15T17:12:45;10.50;17.10
10304;DHT22;5197;48.152;8.590;2022-11-15T17:15:12;10.40;17.40
10304;DHT22;5197;48.152;8.590;2022-11-15T17:17:40;10.40;17.40
10304;DHT22;5197;48.152;8.590;2022-11-15T17:20:14;10.40;17.40
10304;DHT22;5197;48.152;8.590;2022-11-15T17:22:41;10.40;17.60
10304;DHT22;5197;48.152;8.590;2022-11-15T17:25:09;10.40;17.70
10304;DHT22;5197;48.152;8.590;2022-11-15T17:27:36;10.40;17.60
10304;DHT22;5197;48.152;8.590;2022-11-15T17:30:04;10.40;17.50
10304;DHT22;5197;48.152;8.590;2022-11-15T17:32:34;10.40;17.30
10304;DHT22;5197;48.152;8.590;2022-11-15T17:35:01;10.30;17.20
10304;DHT22;5197;48.152;8.590;2022-11-15T17:37:28;10.30;17.10
10304;DHT22;5197;48.152;8.590;2022-11-15T17:39:55;10.30;17.10
10304;DHT22;5197;48.152;8.590;2022-11-15T17:42:22;10.30;17.30
10304;DHT22;5197;48.152;8.590;2022-11-15T17:44:49;10.30;17.10
10304;DHT22;5197;48.152;8.590;2022-11-15T17:47:16;10.30;17.30
10304;DHT22;5197;48.152;8.590;2022-11-15T17:49:43;10.30;17.30
10304;DHT22;5197;48.152;8.590;2022-11-15T17:52:10;10.30;17.40
10304;DHT22;5197;48.152;8.590;2022-11-15T17:54:37;10.20;17.30
10304;DHT22;5197;48.152;8.590;2022-11-15T17:57:04;10.20;17.50
10304;DHT22;5197;48.152;8.590;2022-11-15T17:59:31;10.30;17.50
10304;DHT22;5197;48.152;8.590;2022-11-15T18:01:58;10.20;17.30
10304;DHT22;5197;48.152;8.590;2022-11-15T18:04:25;10.30;17.20
10304;DHT22;5197;48.152;8.590;2022-11-15T18:06:54;10.20;17.00
10304;DHT22;5197;48.152;8.590;2022-11-15T18:09:23;10.30;17.10
10304;DHT22;5197;48.152;8.590;2022-11-15T18:11:52;10.20;17.10
10304;DHT22;5197;48.152;8.590;2022-11-15T18:14:20;10.20;17.30
10304;DHT22;5197;48.152;8.590;2022-11-15T18:16:51;10.20;17.30
10304;DHT22;5197;48.152;8.590;2022-11-15T18:19:22;10.20;17.30
10304;DHT22;5197;48.152;8.590;2022-11-15T18:21:53;10.20;17.30
10304;DHT22;5197;48.152;8.590;2022-11-15T18:24:25;10.20;17.30
10304;DHT22;5197;48.152;8.590;2022-11-15T18:26:52;10.10;17.40
10304;DHT22;5197;48.152;8.590;2022-11-15T18:29:19;10.10;17.40
10304;DHT22;5197;48.152;8.590;2022-11-15T18:31:47;10.20;17.60
10304;DHT22;5197;48.152;8.590;2022-11-15T18:34:16;10.10;17.60
10304;DHT22;5197;48.152;8.590;2022-11-15T18:36:43;10.10;17.70
10304;DHT22;5197;48.152;8.590;2022-11-15T18:39:11;10.10;17.90
10304;DHT22;5197;48.152;8.590;2022-11-15T18:41:43;10.10;18.00
10304;DHT22;5197;48.152;8.590;2022-11-15T18:44:10;10.10;17.90
10304;DHT22;5197;48.152;8.590;2022-11-15T18:46:37;10.10;17.90
10304;DHT22;5197;48.152;8.590;2022-11-15T18:49:05;10.10;17.90
10304;DHT22;5197;48.152;8.590;2022-11-15T18:51:36;10.10;17.90
10304;DHT22;5197;48.152;8.590;2022-11-15T18:54:03;10.00;17.70
10304;DHT22;5197;48.152;8.590;2022-11-15T18:56:31;10.00;17.90
10304;DHT22;5197;48.152;8.590;2022-11-15T18:59:00;10.00;18.90
10304;DHT22;5197;48.152;8.590;2022-11-15T19:01:30;10.00;18.00
10304;DHT22;5197;48.152;8.590;2022-11-15T19:04:09;10.00;18.20
10304;DHT22;5197;48.152;8.590;2022-11-15T19:06:41;9.90;18.90
10304;DHT22;5197;48.152;8.590;2022-11-15T19:09:10;9.90;19.20
10304;DHT22;5197;48.152;8.590;2022-11-15T19:11:38;9.90;19.40
10304;DHT22;5197;48.152;8.590;2022-11-15T19:14:08;9.90;19.20
10304;DHT22;5197;48.152;8.590;2022-11-15T19:16:41;9.90;19.30